KROX/ROX METAR and TAF weather

Enter ICAO airport designator
Station Type Date Time Source
KROX METAR 2022/09/26 10:35 UTC NOAA

KROX 261035Z 30004KT 10SM 03/03 A3005 RMK AO2


Station Type Date Time Source
KROX Decoded METAR 2022/09/26 10:35 UTC NOAA

Roseau, Roseau Municipal Airport/Rudy Billberg Field, MN, United States (KROX) 48-51N 095-42W
Sep 26, 2022 - 06:35 AM EDT / 2022.09.26 1035 UTC
Wind: from the WNW (300 degrees) at 5 MPH (4 KT):0
Visibility: 10 mile(s):0
Temperature: 37 F (3 C)
Dew Point: 37 F (3 C)
Relative Humidity: 100%
Pressure (altimeter): 30.05 in. Hg (1017 hPa)
ob: KROX 261035Z 30004KT 10SM 03/03 A3005 RMK AO2
cycle: 10

Station Type Date Time Source
KROX TAF UTC NOAA

Error!

Example: see airport list